sensor_id;sensor_type;location;lat;lon;timestamp;P1;durP1;ratioP1;P2;durP2;ratioP2
65463;SDS011;52063;45.110;9.870;2023-12-22T00:00:43;8.20;;;6.80;;
65463;SDS011;52063;45.110;9.870;2023-12-22T00:03:12;8.50;;;7.28;;
65463;SDS011;52063;45.110;9.870;2023-12-22T00:05:39;10.25;;;7.22;;
65463;SDS011;52063;45.110;9.870;2023-12-22T00:08:05;8.70;;;7.43;;
65463;SDS011;52063;45.110;9.870;2023-12-22T00:10:30;8.70;;;7.38;;
65463;SDS011;52063;45.110;9.870;2023-12-22T00:12:56;8.23;;;7.27;;
65463;SDS011;52063;45.110;9.870;2023-12-22T00:15:21;8.43;;;7.07;;
65463;SDS011;52063;45.110;9.870;2023-12-22T00:17:47;8.27;;;6.80;;
65463;SDS011;52063;45.110;9.870;2023-12-22T00:20:12;9.77;;;7.50;;
65463;SDS011;52063;45.110;9.870;2023-12-22T00:22:39;9.73;;;7.03;;
65463;SDS011;52063;45.110;9.870;2023-12-22T00:25:05;8.40;;;6.87;;
65463;SDS011;52063;45.110;9.870;2023-12-22T00:27:32;9.32;;;6.95;;
65463;SDS011;52063;45.110;9.870;2023-12-22T00:29:57;7.70;;;6.90;;
65463;SDS011;52063;45.110;9.870;2023-12-22T00:32:23;7.97;;;7.07;;
65463;SDS011;52063;45.110;9.870;2023-12-22T00:34:48;8.30;;;7.40;;
65463;SDS011;52063;45.110;9.870;2023-12-22T00:37:14;8.63;;;7.60;;
65463;SDS011;52063;45.110;9.870;2023-12-22T00:39:39;8.33;;;6.97;;
65463;SDS011;52063;45.110;9.870;2023-12-22T00:42:05;8.17;;;6.70;;
65463;SDS011;52063;45.110;9.870;2023-12-22T00:44:30;8.63;;;7.20;;
65463;SDS011;52063;45.110;9.870;2023-12-22T00:46:56;8.90;;;6.80;;
65463;SDS011;52063;45.110;9.870;2023-12-22T00:49:21;7.83;;;6.73;;
65463;SDS011;52063;45.110;9.870;2023-12-22T00:51:47;9.10;;;7.23;;
65463;SDS011;52063;45.110;9.870;2023-12-22T00:54:12;7.60;;;6.80;;
65463;SDS011;52063;45.110;9.870;2023-12-22T00:56:38;8.00;;;6.90;;
65463;SDS011;52063;45.110;9.870;2023-12-22T00:59:03;7.83;;;6.67;;
65463;SDS011;52063;45.110;9.870;2023-12-22T01:01:29;7.70;;;6.87;;
65463;SDS011;52063;45.110;9.870;2023-12-22T01:03:54;7.97;;;6.60;;
65463;SDS011;52063;45.110;9.870;2023-12-22T01:06:20;8.27;;;6.70;;
65463;SDS011;52063;45.110;9.870;2023-12-22T01:08:45;7.38;;;6.47;;
65463;SDS011;52063;45.110;9.870;2023-12-22T01:11:15;7.35;;;6.50;;
65463;SDS011;52063;45.110;9.870;2023-12-22T01:13:43;7.57;;;6.47;;
65463;SDS011;52063;45.110;9.870;2023-12-22T01:16:09;7.68;;;6.55;;
65463;SDS011;52063;45.110;9.870;2023-12-22T01:18:35;10.77;;;6.63;;
65463;SDS011;52063;45.110;9.870;2023-12-22T01:21:00;7.15;;;6.45;;
65463;SDS011;52063;45.110;9.870;2023-12-22T01:23:26;10.17;;;6.47;;
65463;SDS011;52063;45.110;9.870;2023-12-22T01:25:51;8.00;;;6.57;;
65463;SDS011;52063;45.110;9.870;2023-12-22T01:28:17;7.30;;;6.50;;
65463;SDS011;52063;45.110;9.870;2023-12-22T01:30:42;8.10;;;6.83;;
65463;SDS011;52063;45.110;9.870;2023-12-22T01:33:08;7.63;;;6.60;;
65463;SDS011;52063;45.110;9.870;2023-12-22T01:35:33;7.23;;;5.93;;
65463;SDS011;52063;45.110;9.870;2023-12-22T01:37:59;8.63;;;6.77;;
65463;SDS011;52063;45.110;9.870;2023-12-22T01:40:24;9.30;;;6.60;;
65463;SDS011;52063;45.110;9.870;2023-12-22T01:42:50;8.48;;;6.88;;
65463;SDS011;52063;45.110;9.870;2023-12-22T01:45:16;7.27;;;6.43;;
65463;SDS011;52063;45.110;9.870;2023-12-22T01:47:41;9.60;;;6.23;;
65463;SDS011;52063;45.110;9.870;2023-12-22T01:50:07;7.17;;;5.93;;
65463;SDS011;52063;45.110;9.870;2023-12-22T01:52:36;9.60;;;5.90;;
65463;SDS011;52063;45.110;9.870;2023-12-22T01:55:03;11.13;;;6.15;;
65463;SDS011;52063;45.110;9.870;2023-12-22T01:57:29;6.30;;;5.70;;
65463;SDS011;52063;45.110;9.870;2023-12-22T01:59:55;7.37;;;6.20;;
65463;SDS011;52063;45.110;9.870;2023-12-22T02:02:22;6.70;;;5.95;;
65463;SDS011;52063;45.110;9.870;2023-12-22T02:04:47;6.28;;;5.65;;
65463;SDS011;52063;45.110;9.870;2023-12-22T02:07:13;8.17;;;6.43;;
65463;SDS011;52063;45.110;9.870;2023-12-22T02:09:38;7.00;;;6.25;;
65463;SDS011;52063;45.110;9.870;2023-12-22T02:12:04;6.77;;;6.07;;
65463;SDS011;52063;45.110;9.870;2023-12-22T02:14:30;6.33;;;5.60;;
65463;SDS011;52063;45.110;9.870;2023-12-22T02:17:01;6.60;;;5.72;;
65463;SDS011;52063;45.110;9.870;2023-12-22T02:22:07;7.27;;;5.70;;
65463;SDS011;52063;45.110;9.870;2023-12-22T02:24:33;7.07;;;5.65;;
65463;SDS011;52063;45.110;9.870;2023-12-22T02:27:03;6.55;;;5.43;;
65463;SDS011;52063;45.110;9.870;2023-12-22T02:29:35;6.72;;;6.00;;
65463;SDS011;52063;45.110;9.870;2023-12-22T02:32:02;6.20;;;5.57;;
65463;SDS011;52063;45.110;9.870;2023-12-22T02:34:33;7.27;;;5.43;;
65463;SDS011;52063;45.110;9.870;2023-12-22T02:37:02;6.32;;;5.70;;
65463;SDS011;52063;45.110;9.870;2023-12-22T02:39:32;6.80;;;5.50;;
65463;SDS011;52063;45.110;9.870;2023-12-22T02:41:58;6.53;;;5.80;;
65463;SDS011;52063;45.110;9.870;2023-12-22T02:44:24;7.30;;;5.65;;
65463;SDS011;52063;45.110;9.870;2023-12-22T02:46:50;5.90;;;5.30;;
65463;SDS011;52063;45.110;9.870;2023-12-22T02:49:15;5.70;;;5.20;;
65463;SDS011;52063;45.110;9.870;2023-12-22T02:51:42;6.13;;;5.53;;
65463;SDS011;52063;45.110;9.870;2023-12-22T02:54:07;5.70;;;5.13;;
65463;SDS011;52063;45.110;9.870;2023-12-22T02:56:33;7.83;;;5.70;;
65463;SDS011;52063;45.110;9.870;2023-12-22T02:58:58;5.73;;;5.10;;
65463;SDS011;52063;45.110;9.870;2023-12-22T03:01:24;5.68;;;5.07;;
65463;SDS011;52063;45.110;9.870;2023-12-22T03:03:49;5.43;;;4.93;;
65463;SDS011;52063;45.110;9.870;2023-12-22T03:06:14;6.07;;;5.30;;
65463;SDS011;52063;45.110;9.870;2023-12-22T03:08:40;6.50;;;5.50;;
65463;SDS011;52063;45.110;9.870;2023-12-22T03:11:05;6.03;;;5.43;;
65463;SDS011;52063;45.110;9.870;2023-12-22T03:13:31;6.00;;;5.00;;
65463;SDS011;52063;45.110;9.870;2023-12-22T03:15:56;5.37;;;4.87;;
65463;SDS011;52063;45.110;9.870;2023-12-22T03:18:21;7.27;;;5.20;;
65463;SDS011;52063;45.110;9.870;2023-12-22T03:20:47;5.97;;;5.43;;
65463;SDS011;52063;45.110;9.870;2023-12-22T03:23:12;6.33;;;5.23;;
65463;SDS011;52063;45.110;9.870;2023-12-22T03:25:38;5.30;;;4.80;;
65463;SDS011;52063;45.110;9.870;2023-12-22T03:28:03;6.18;;;4.80;;
65463;SDS011;52063;45.110;9.870;2023-12-22T03:30:29;5.93;;;5.00;;
65463;SDS011;52063;45.110;9.870;2023-12-22T03:32:55;5.93;;;5.32;;
65463;SDS011;52063;45.110;9.870;2023-12-22T03:35:20;6.93;;;5.23;;
65463;SDS011;52063;45.110;9.870;2023-12-22T03:37:46;5.90;;;5.30;;
65463;SDS011;52063;45.110;9.870;2023-12-22T03:40:11;8.03;;;5.00;;
65463;SDS011;52063;45.110;9.870;2023-12-22T03:42:37;5.30;;;4.50;;
65463;SDS011;52063;45.110;9.870;2023-12-22T03:45:02;5.33;;;4.83;;
65463;SDS011;52063;45.110;9.870;2023-12-22T03:47:28;5.18;;;4.68;;
65463;SDS011;52063;45.110;9.870;2023-12-22T03:49:54;7.37;;;5.00;;
65463;SDS011;52063;45.110;9.870;2023-12-22T03:52:19;5.38;;;4.88;;
65463;SDS011;52063;45.110;9.870;2023-12-22T03:54:45;5.23;;;4.73;;
65463;SDS011;52063;45.110;9.870;2023-12-22T03:57:10;5.00;;;4.50;;
65463;SDS011;52063;45.110;9.870;2023-12-22T03:59:36;5.00;;;4.50;;
65463;SDS011;52063;45.110;9.870;2023-12-22T04:02:01;8.17;;;4.77;;
65463;SDS011;52063;45.110;9.870;2023-12-22T04:04:27;5.32;;;4.55;;
65463;SDS011;52063;45.110;9.870;2023-12-22T04:06:53;6.13;;;4.97;;
65463;SDS011;52063;45.110;9.870;2023-12-22T04:09:19;5.65;;;5.15;;
65463;SDS011;52063;45.110;9.870;2023-12-22T04:11:44;6.03;;;4.55;;
65463;SDS011;52063;45.110;9.870;2023-12-22T04:14:10;5.53;;;4.47;;
65463;SDS011;52063;45.110;9.870;2023-12-22T04:16:36;6.00;;;4.70;;
65463;SDS011;52063;45.110;9.870;2023-12-22T04:19:03;4.75;;;4.28;;
65463;SDS011;52063;45.110;9.870;2023-12-22T04:21:28;6.20;;;4.27;;
65463;SDS011;52063;45.110;9.870;2023-12-22T04:23:54;5.13;;;4.63;;
65463;SDS011;52063;45.110;9.870;2023-12-22T04:26:19;4.83;;;4.33;;
65463;SDS011;52063;45.110;9.870;2023-12-22T04:28:45;4.80;;;4.27;;
65463;SDS011;52063;45.110;9.870;2023-12-22T04:31:10;5.37;;;4.07;;
65463;SDS011;52063;45.110;9.870;2023-12-22T04:33:36;4.75;;;4.15;;
65463;SDS011;52063;45.110;9.870;2023-12-22T04:36:01;4.70;;;4.27;;
65463;SDS011;52063;45.110;9.870;2023-12-22T04:38:26;4.37;;;3.93;;
65463;SDS011;52063;45.110;9.870;2023-12-22T04:40:52;4.53;;;4.13;;
65463;SDS011;52063;45.110;9.870;2023-12-22T04:43:18;4.67;;;4.27;;
65463;SDS011;52063;45.110;9.870;2023-12-22T04:45:43;5.03;;;4.50;;
65463;SDS011;52063;45.110;9.870;2023-12-22T04:48:09;4.50;;;4.10;;
65463;SDS011;52063;45.110;9.870;2023-12-22T04:50:34;3.97;;;3.57;;
65463;SDS011;52063;45.110;9.870;2023-12-22T04:53:00;4.40;;;4.00;;
65463;SDS011;52063;45.110;9.870;2023-12-22T04:55:25;4.07;;;3.70;;
65463;SDS011;52063;45.110;9.870;2023-12-22T04:57:50;4.17;;;3.77;;
65463;SDS011;52063;45.110;9.870;2023-12-22T05:00:16;4.77;;;4.00;;
65463;SDS011;52063;45.110;9.870;2023-12-22T05:02:42;4.32;;;3.90;;
65463;SDS011;52063;45.110;9.870;2023-12-22T05:05:07;4.97;;;3.97;;
65463;SDS011;52063;45.110;9.870;2023-12-22T05:07:33;3.95;;;3.60;;
65463;SDS011;52063;45.110;9.870;2023-12-22T05:09:59;4.50;;;4.10;;
65463;SDS011;52063;45.110;9.870;2023-12-22T05:12:24;4.53;;;3.83;;
65463;SDS011;52063;45.110;9.870;2023-12-22T05:14:50;4.10;;;3.70;;
65463;SDS011;52063;45.110;9.870;2023-12-22T05:17:15;4.97;;;3.47;;
65463;SDS011;52063;45.110;9.870;2023-12-22T05:19:41;4.90;;;3.60;;
65463;SDS011;52063;45.110;9.870;2023-12-22T05:22:07;4.33;;;3.90;;
65463;SDS011;52063;45.110;9.870;2023-12-22T05:24:32;5.03;;;3.80;;
65463;SDS011;52063;45.110;9.870;2023-12-22T05:26:57;5.97;;;3.67;;
65463;SDS011;52063;45.110;9.870;2023-12-22T05:29:23;3.50;;;3.20;;
65463;SDS011;52063;45.110;9.870;2023-12-22T05:31:48;4.43;;;3.60;;
65463;SDS011;52063;45.110;9.870;2023-12-22T05:34:14;3.60;;;3.30;;
65463;SDS011;52063;45.110;9.870;2023-12-22T05:36:40;3.97;;;3.40;;
65463;SDS011;52063;45.110;9.870;2023-12-22T05:39:05;4.43;;;3.57;;
65463;SDS011;52063;45.110;9.870;2023-12-22T05:41:34;5.80;;;3.70;;
65463;SDS011;52063;45.110;9.870;2023-12-22T05:44:01;4.00;;;3.60;;
65463;SDS011;52063;45.110;9.870;2023-12-22T05:46:27;4.00;;;2.87;;
65463;SDS011;52063;45.110;9.870;2023-12-22T05:48:52;9.30;;;3.17;;
65463;SDS011;52063;45.110;9.870;2023-12-22T05:51:18;3.40;;;3.10;;
65463;SDS011;52063;45.110;9.870;2023-12-22T05:53:43;4.37;;;3.30;;
65463;SDS011;52063;45.110;9.870;2023-12-22T05:56:18;4.75;;;3.40;;
65463;SDS011;52063;45.110;9.870;2023-12-22T05:58:45;3.57;;;3.27;;
65463;SDS011;52063;45.110;9.870;2023-12-22T06:01:14;6.63;;;3.53;;
65463;SDS011;52063;45.110;9.870;2023-12-22T06:03:44;3.90;;;3.40;;
65463;SDS011;52063;45.110;9.870;2023-12-22T06:06:09;5.50;;;3.30;;
65463;SDS011;52063;45.110;9.870;2023-12-22T06:08:35;3.40;;;3.10;;
65463;SDS011;52063;45.110;9.870;2023-12-22T06:11:02;4.18;;;3.20;;
65463;SDS011;52063;45.110;9.870;2023-12-22T06:13:27;3.67;;;3.23;;
65463;SDS011;52063;45.110;9.870;2023-12-22T06:15:53;3.13;;;2.85;;
65463;SDS011;52063;45.110;9.870;2023-12-22T06:18:19;6.33;;;3.10;;
65463;SDS011;52063;45.110;9.870;2023-12-22T06:20:44;3.80;;;3.00;;
65463;SDS011;52063;45.110;9.870;2023-12-22T06:23:10;4.07;;;3.40;;
65463;SDS011;52063;45.110;9.870;2023-12-22T06:25:35;4.20;;;3.17;;
65463;SDS011;52063;45.110;9.870;2023-12-22T06:28:01;3.90;;;2.93;;
65463;SDS011;52063;45.110;9.870;2023-12-22T06:30:27;3.00;;;2.80;;
65463;SDS011;52063;45.110;9.870;2023-12-22T06:32:52;3.33;;;3.03;;
65463;SDS011;52063;45.110;9.870;2023-12-22T06:35:18;3.37;;;3.07;;
65463;SDS011;52063;45.110;9.870;2023-12-22T06:37:48;3.45;;;3.10;;
65463;SDS011;52063;45.110;9.870;2023-12-22T06:40:14;3.35;;;3.00;;
65463;SDS011;52063;45.110;9.870;2023-12-22T06:42:40;3.27;;;2.90;;
65463;SDS011;52063;45.110;9.870;2023-12-22T06:45:07;3.72;;;3.42;;
65463;SDS011;52063;45.110;9.870;2023-12-22T06:47:32;3.40;;;3.10;;
65463;SDS011;52063;45.110;9.870;2023-12-22T06:49:58;3.97;;;2.77;;
65463;SDS011;52063;45.110;9.870;2023-12-22T06:52:24;4.35;;;3.03;;
65463;SDS011;52063;45.110;9.870;2023-12-22T06:54:49;2.70;;;1.80;;
65463;SDS011;52063;45.110;9.870;2023-12-22T06:57:15;4.73;;;2.00;;
65463;SDS011;52063;45.110;9.870;2023-12-22T06:59:41;3.90;;;2.40;;
65463;SDS011;52063;45.110;9.870;2023-12-22T07:02:07;3.50;;;2.30;;
65463;SDS011;52063;45.110;9.870;2023-12-22T07:07:32;4.20;;;2.40;;
65463;SDS011;52063;45.110;9.870;2023-12-22T07:09:58;3.20;;;2.30;;
65463;SDS011;52063;45.110;9.870;2023-12-22T07:12:23;3.37;;;2.43;;
65463;SDS011;52063;45.110;9.870;2023-12-22T07:14:49;4.80;;;2.53;;
65463;SDS011;52063;45.110;9.870;2023-12-22T07:17:14;3.60;;;2.30;;
65463;SDS011;52063;45.110;9.870;2023-12-22T07:19:40;3.05;;;2.22;;
65463;SDS011;52063;45.110;9.870;2023-12-22T07:22:06;3.90;;;2.20;;
65463;SDS011;52063;45.110;9.870;2023-12-22T07:24:32;3.78;;;2.38;;
65463;SDS011;52063;45.110;9.870;2023-12-22T07:26:57;4.57;;;2.37;;
65463;SDS011;52063;45.110;9.870;2023-12-22T07:29:23;3.77;;;2.30;;
65463;SDS011;52063;45.110;9.870;2023-12-22T07:31:48;6.03;;;2.30;;
65463;SDS011;52063;45.110;9.870;2023-12-22T07:34:14;3.67;;;2.30;;
65463;SDS011;52063;45.110;9.870;2023-12-22T07:36:40;3.25;;;2.17;;
65463;SDS011;52063;45.110;9.870;2023-12-22T07:39:05;2.83;;;2.07;;
65463;SDS011;52063;45.110;9.870;2023-12-22T07:41:32;2.92;;;2.10;;
65463;SDS011;52063;45.110;9.870;2023-12-22T07:43:57;2.47;;;2.00;;
65463;SDS011;52063;45.110;9.870;2023-12-22T07:46:23;3.97;;;2.13;;
65463;SDS011;52063;45.110;9.870;2023-12-22T07:48:48;3.00;;;2.13;;
65463;SDS011;52063;45.110;9.870;2023-12-22T07:51:14;3.22;;;2.10;;
65463;SDS011;52063;45.110;9.870;2023-12-22T07:53:39;3.50;;;2.07;;
65463;SDS011;52063;45.110;9.870;2023-12-22T07:56:05;2.73;;;2.10;;
65463;SDS011;52063;45.110;9.870;2023-12-22T07:58:31;4.35;;;2.50;;
65463;SDS011;52063;45.110;9.870;2023-12-22T08:01:00;4.10;;;2.30;;
65463;SDS011;52063;45.110;9.870;2023-12-22T08:03:25;2.10;;;1.90;;
65463;SDS011;52063;45.110;9.870;2023-12-22T08:05:51;4.40;;;2.17;;
65463;SDS011;52063;45.110;9.870;2023-12-22T08:08:16;5.17;;;2.20;;
65463;SDS011;52063;45.110;9.870;2023-12-22T08:10:41;3.47;;;2.30;;
65463;SDS011;52063;45.110;9.870;2023-12-22T08:13:07;2.43;;;2.23;;
65463;SDS011;52063;45.110;9.870;2023-12-22T08:15:32;3.43;;;2.30;;
65463;SDS011;52063;45.110;9.870;2023-12-22T08:17:58;2.47;;;2.00;;
65463;SDS011;52063;45.110;9.870;2023-12-22T08:20:23;3.40;;;2.07;;
65463;SDS011;52063;45.110;9.870;2023-12-22T08:22:49;3.20;;;2.13;;
65463;SDS011;52063;45.110;9.870;2023-12-22T08:25:16;3.72;;;1.85;;
65463;SDS011;52063;45.110;9.870;2023-12-22T08:27:50;2.00;;;1.67;;
65463;SDS011;52063;45.110;9.870;2023-12-22T08:30:17;2.80;;;2.30;;
65463;SDS011;52063;45.110;9.870;2023-12-22T08:32:42;4.57;;;2.30;;
65463;SDS011;52063;45.110;9.870;2023-12-22T08:35:08;2.30;;;1.90;;
65463;SDS011;52063;45.110;9.870;2023-12-22T08:37:33;2.43;;;1.97;;
65463;SDS011;52063;45.110;9.870;2023-12-22T08:39:59;3.00;;;2.30;;
65463;SDS011;52063;45.110;9.870;2023-12-22T08:42:25;2.67;;;2.03;;
65463;SDS011;52063;45.110;9.870;2023-12-22T08:44:51;2.25;;;2.05;;
65463;SDS011;52063;45.110;9.870;2023-12-22T08:47:16;3.17;;;2.13;;
65463;SDS011;52063;45.110;9.870;2023-12-22T08:49:41;5.00;;;2.10;;
65463;SDS011;52063;45.110;9.870;2023-12-22T08:52:07;2.08;;;1.80;;
65463;SDS011;52063;45.110;9.870;2023-12-22T08:54:33;2.60;;;1.77;;
65463;SDS011;52063;45.110;9.870;2023-12-22T08:57:00;3.42;;;1.90;;
65463;SDS011;52063;45.110;9.870;2023-12-22T08:59:26;2.10;;;1.85;;
65463;SDS011;52063;45.110;9.870;2023-12-22T09:01:52;2.67;;;2.00;;
65463;SDS011;52063;45.110;9.870;2023-12-22T09:04:17;4.47;;;2.00;;
65463;SDS011;52063;45.110;9.870;2023-12-22T09:06:43;2.13;;;1.80;;
65463;SDS011;52063;45.110;9.870;2023-12-22T09:09:08;3.03;;;2.40;;
65463;SDS011;52063;45.110;9.870;2023-12-22T09:11:37;2.17;;;1.88;;
65463;SDS011;52063;45.110;9.870;2023-12-22T09:14:04;2.25;;;1.95;;
65463;SDS011;52063;45.110;9.870;2023-12-22T09:16:31;2.88;;;2.03;;
65463;SDS011;52063;45.110;9.870;2023-12-22T09:18:56;2.20;;;2.00;;
65463;SDS011;52063;45.110;9.870;2023-12-22T09:21:22;2.07;;;1.87;;
65463;SDS011;52063;45.110;9.870;2023-12-22T09:23:47;2.77;;;1.90;;
65463;SDS011;52063;45.110;9.870;2023-12-22T09:26:14;2.27;;;1.87;;
65463;SDS011;52063;45.110;9.870;2023-12-22T09:28:40;3.55;;;2.00;;
65463;SDS011;52063;45.110;9.870;2023-12-22T09:31:06;2.20;;;2.00;;
65463;SDS011;52063;45.110;9.870;2023-12-22T09:33:32;3.58;;;2.08;;
65463;SDS011;52063;45.110;9.870;2023-12-22T09:35:58;2.63;;;1.90;;
65463;SDS011;52063;45.110;9.870;2023-12-22T09:38:23;2.93;;;1.90;;
65463;SDS011;52063;45.110;9.870;2023-12-22T09:40:49;2.23;;;2.00;;
65463;SDS011;52063;45.110;9.870;2023-12-22T09:43:15;2.13;;;1.58;;
65463;SDS011;52063;45.110;9.870;2023-12-22T09:45:43;2.38;;;1.85;;
65463;SDS011;52063;45.110;9.870;2023-12-22T09:48:09;2.40;;;1.73;;
65463;SDS011;52063;45.110;9.870;2023-12-22T09:50:36;1.92;;;1.73;;
65463;SDS011;52063;45.110;9.870;2023-12-22T09:53:02;2.30;;;1.70;;
65463;SDS011;52063;45.110;9.870;2023-12-22T09:55:27;2.58;;;1.90;;
65463;SDS011;52063;45.110;9.870;2023-12-22T09:57:56;2.17;;;1.80;;
65463;SDS011;52063;45.110;9.870;2023-12-22T10:00:21;1.93;;;1.53;;
65463;SDS011;52063;45.110;9.870;2023-12-22T10:02:47;2.17;;;1.98;;
65463;SDS011;52063;45.110;9.870;2023-12-22T10:05:13;2.40;;;1.33;;
65463;SDS011;52063;45.110;9.870;2023-12-22T10:07:42;2.15;;;1.70;;
65463;SDS011;52063;45.110;9.870;2023-12-22T10:10:10;1.92;;;1.70;;
65463;SDS011;52063;45.110;9.870;2023-12-22T10:12:35;1.90;;;1.70;;
65463;SDS011;52063;45.110;9.870;2023-12-22T10:15:01;1.58;;;1.38;;
65463;SDS011;52063;45.110;9.870;2023-12-22T10:17:28;1.97;;;1.40;;
65463;SDS011;52063;45.110;9.870;2023-12-22T10:19:54;3.30;;;1.77;;
65463;SDS011;52063;45.110;9.870;2023-12-22T10:22:19;2.15;;;1.48;;
65463;SDS011;52063;45.110;9.870;2023-12-22T10:24:48;2.20;;;1.67;;
65463;SDS011;52063;45.110;9.870;2023-12-22T10:27:16;2.22;;;1.20;;
65463;SDS011;52063;45.110;9.870;2023-12-22T10:29:57;1.83;;;1.23;;
65463;SDS011;52063;45.110;9.870;2023-12-22T10:32:23;1.55;;;1.40;;
65463;SDS011;52063;45.110;9.870;2023-12-22T10:34:52;1.30;;;1.10;;
65463;SDS011;52063;45.110;9.870;2023-12-22T10:37:18;1.70;;;1.60;;
65463;SDS011;52063;45.110;9.870;2023-12-22T10:39:43;1.33;;;1.23;;
65463;SDS011;52063;45.110;9.870;2023-12-22T10:42:13;1.70;;;1.13;;
65463;SDS011;52063;45.110;9.870;2023-12-22T10:44:39;1.47;;;1.37;;
65463;SDS011;52063;45.110;9.870;2023-12-22T10:47:06;1.52;;;1.30;;
65463;SDS011;52063;45.110;9.870;2023-12-22T10:49:32;3.03;;;1.67;;
65463;SDS011;52063;45.110;9.870;2023-12-22T10:51:59;4.00;;;1.20;;
65463;SDS011;52063;45.110;9.870;2023-12-22T10:54:24;1.73;;;1.60;;
65463;SDS011;52063;45.110;9.870;2023-12-22T10:56:50;1.63;;;1.38;;
65463;SDS011;52063;45.110;9.870;2023-12-22T10:59:22;2.10;;;1.63;;
65463;SDS011;52063;45.110;9.870;2023-12-22T11:01:48;2.30;;;1.43;;
65463;SDS011;52063;45.110;9.870;2023-12-22T11:04:17;1.33;;;1.17;;
65463;SDS011;52063;45.110;9.870;2023-12-22T11:06:44;1.67;;;1.25;;
65463;SDS011;52063;45.110;9.870;2023-12-22T11:09:12;2.13;;;1.58;;
65463;SDS011;52063;45.110;9.870;2023-12-22T11:11:42;2.55;;;1.40;;
65463;SDS011;52063;45.110;9.870;2023-12-22T11:14:07;3.40;;;1.23;;
65463;SDS011;52063;45.110;9.870;2023-12-22T11:16:34;2.30;;;1.37;;
65463;SDS011;52063;45.110;9.870;2023-12-22T11:19:01;2.28;;;1.60;;
65463;SDS011;52063;45.110;9.870;2023-12-22T11:21:27;1.45;;;1.20;;
65463;SDS011;52063;45.110;9.870;2023-12-22T11:23:54;2.78;;;1.52;;
65463;SDS011;52063;45.110;9.870;2023-12-22T11:26:20;1.92;;;1.60;;
65463;SDS011;52063;45.110;9.870;2023-12-22T11:28:47;1.70;;;1.60;;
65463;SDS011;52063;45.110;9.870;2023-12-22T11:31:14;3.20;;;1.52;;
65463;SDS011;52063;45.110;9.870;2023-12-22T11:33:43;2.00;;;1.38;;
65463;SDS011;52063;45.110;9.870;2023-12-22T11:36:10;1.83;;;1.52;;
65463;SDS011;52063;45.110;9.870;2023-12-22T11:38:36;1.67;;;1.30;;
65463;SDS011;52063;45.110;9.870;2023-12-22T11:41:02;1.40;;;1.30;;
65463;SDS011;52063;45.110;9.870;2023-12-22T11:43:28;1.45;;;1.30;;
65463;SDS011;52063;45.110;9.870;2023-12-22T11:45:54;3.72;;;1.30;;
65463;SDS011;52063;45.110;9.870;2023-12-22T11:48:21;1.37;;;1.17;;
65463;SDS011;52063;45.110;9.870;2023-12-22T11:50:47;3.78;;;1.30;;
65463;SDS011;52063;45.110;9.870;2023-12-22T11:53:25;1.50;;;1.40;;
65463;SDS011;52063;45.110;9.870;2023-12-22T11:56:24;1.58;;;1.30;;
65463;SDS011;52063;45.110;9.870;2023-12-22T11:58:45;1.55;;;1.42;;
65463;SDS011;52063;45.110;9.870;2023-12-22T12:01:16;2.72;;;1.40;;
65463;SDS011;52063;45.110;9.870;2023-12-22T12:03:52;1.77;;;1.15;;
65463;SDS011;52063;45.110;9.870;2023-12-22T12:08:56;1.95;;;1.20;;
65463;SDS011;52063;45.110;9.870;2023-12-22T12:11:23;1.83;;;1.30;;
65463;SDS011;52063;45.110;9.870;2023-12-22T12:13:49;1.88;;;1.30;;
65463;SDS011;52063;45.110;9.870;2023-12-22T12:16:17;1.63;;;1.17;;
65463;SDS011;52063;45.110;9.870;2023-12-22T12:18:44;1.40;;;1.20;;
65463;SDS011;52063;45.110;9.870;2023-12-22T12:21:10;1.38;;;1.27;;
65463;SDS011;52063;45.110;9.870;2023-12-22T12:23:36;1.70;;;1.17;;
65463;SDS011;52063;45.110;9.870;2023-12-22T12:26:05;1.65;;;1.48;;
65463;SDS011;52063;45.110;9.870;2023-12-22T12:28:32;1.50;;;1.10;;
65463;SDS011;52063;45.110;9.870;2023-12-22T12:31:07;1.37;;;1.20;;
65463;SDS011;52063;45.110;9.870;2023-12-22T12:33:34;1.50;;;1.10;;
65463;SDS011;52063;45.110;9.870;2023-12-22T12:36:00;1.40;;;1.30;;
65463;SDS011;52063;45.110;9.870;2023-12-22T12:41:13;1.75;;;1.20;;
65463;SDS011;52063;45.110;9.870;2023-12-22T12:43:41;1.30;;;1.17;;
65463;SDS011;52063;45.110;9.870;2023-12-22T12:46:08;1.13;;;0.90;;
65463;SDS011;52063;45.110;9.870;2023-12-22T12:48:34;1.30;;;1.20;;
65463;SDS011;52063;45.110;9.870;2023-12-22T12:51:06;1.77;;;1.00;;
65463;SDS011;52063;45.110;9.870;2023-12-22T12:53:32;1.63;;;1.30;;
65463;SDS011;52063;45.110;9.870;2023-12-22T12:55:58;2.80;;;1.35;;
65463;SDS011;52063;45.110;9.870;2023-12-22T12:58:30;2.33;;;1.23;;
65463;SDS011;52063;45.110;9.870;2023-12-22T13:01:09;1.20;;;1.03;;
65463;SDS011;52063;45.110;9.870;2023-12-22T13:03:54;1.20;;;1.10;;
65463;SDS011;52063;45.110;9.870;2023-12-22T13:06:20;1.90;;;1.27;;
65463;SDS011;52063;45.110;9.870;2023-12-22T13:08:52;2.08;;;0.90;;
65463;SDS011;52063;45.110;9.870;2023-12-22T13:11:25;2.63;;;1.23;;
65463;SDS011;52063;45.110;9.870;2023-12-22T13:13:52;1.40;;;1.00;;
65463;SDS011;52063;45.110;9.870;2023-12-22T13:16:19;1.48;;;1.27;;
65463;SDS011;52063;45.110;9.870;2023-12-22T13:18:45;1.33;;;1.17;;
65463;SDS011;52063;45.110;9.870;2023-12-22T13:21:11;3.92;;;1.10;;
65463;SDS011;52063;45.110;9.870;2023-12-22T13:23:36;1.20;;;1.10;;
65463;SDS011;52063;45.110;9.870;2023-12-22T13:26:02;1.90;;;1.07;;
65463;SDS011;52063;45.110;9.870;2023-12-22T13:28:27;1.30;;;1.10;;
65463;SDS011;52063;45.110;9.870;2023-12-22T13:30:53;1.38;;;1.10;;
65463;SDS011;52063;45.110;9.870;2023-12-22T13:33:19;1.10;;;1.00;;
65463;SDS011;52063;45.110;9.870;2023-12-22T13:35:45;1.35;;;1.25;;
65463;SDS011;52063;45.110;9.870;2023-12-22T13:38:11;1.07;;;0.70;;
65463;SDS011;52063;45.110;9.870;2023-12-22T13:40:38;1.05;;;0.90;;
65463;SDS011;52063;45.110;9.870;2023-12-22T13:43:04;1.10;;;1.00;;
65463;SDS011;52063;45.110;9.870;2023-12-22T13:45:30;1.52;;;1.00;;
65463;SDS011;52063;45.110;9.870;2023-12-22T13:47:56;0.90;;;0.80;;
65463;SDS011;52063;45.110;9.870;2023-12-22T13:50:22;2.38;;;1.10;;
65463;SDS011;52063;45.110;9.870;2023-12-22T13:52:48;1.17;;;1.08;;
65463;SDS011;52063;45.110;9.870;2023-12-22T13:55:16;1.90;;;1.10;;
65463;SDS011;52063;45.110;9.870;2023-12-22T13:57:43;1.63;;;1.13;;
65463;SDS011;52063;45.110;9.870;2023-12-22T14:02:44;2.05;;;1.00;;
65463;SDS011;52063;45.110;9.870;2023-12-22T14:05:10;3.13;;;0.90;;
65463;SDS011;52063;45.110;9.870;2023-12-22T14:07:36;2.77;;;0.77;;
65463;SDS011;52063;45.110;9.870;2023-12-22T14:10:05;1.75;;;1.05;;
65463;SDS011;52063;45.110;9.870;2023-12-22T14:12:34;0.98;;;0.75;;
65463;SDS011;52063;45.110;9.870;2023-12-22T14:14:59;1.40;;;0.90;;
65463;SDS011;52063;45.110;9.870;2023-12-22T14:17:25;1.47;;;1.00;;
65463;SDS011;52063;45.110;9.870;2023-12-22T14:19:50;1.13;;;0.98;;
65463;SDS011;52063;45.110;9.870;2023-12-22T14:22:15;1.10;;;1.00;;
65463;SDS011;52063;45.110;9.870;2023-12-22T14:24:42;1.10;;;0.90;;
65463;SDS011;52063;45.110;9.870;2023-12-22T14:27:07;4.50;;;1.00;;
65463;SDS011;52063;45.110;9.870;2023-12-22T14:29:33;1.27;;;1.00;;
65463;SDS011;52063;45.110;9.870;2023-12-22T14:32:00;1.27;;;0.90;;
65463;SDS011;52063;45.110;9.870;2023-12-22T14:34:26;1.23;;;1.08;;
65463;SDS011;52063;45.110;9.870;2023-12-22T14:36:51;2.13;;;0.70;;
65463;SDS011;52063;45.110;9.870;2023-12-22T14:39:17;1.67;;;1.00;;
65463;SDS011;52063;45.110;9.870;2023-12-22T14:41:42;1.20;;;0.95;;
65463;SDS011;52063;45.110;9.870;2023-12-22T14:44:08;1.40;;;0.90;;
65463;SDS011;52063;45.110;9.870;2023-12-22T14:46:37;1.25;;;0.80;;
65463;SDS011;52063;45.110;9.870;2023-12-22T14:49:03;1.65;;;1.27;;
65463;SDS011;52063;45.110;9.870;2023-12-22T14:51:29;1.40;;;0.80;;
65463;SDS011;52063;45.110;9.870;2023-12-22T14:53:54;1.10;;;1.00;;
65463;SDS011;52063;45.110;9.870;2023-12-22T14:56:20;2.20;;;1.10;;